createdAt,value
2022-11-05T00:00:06.797Z,94.3
2022-11-05T00:05:01.798Z,91.3
2022-11-05T00:25:02.043Z,100.0
2022-11-05T00:40:01.886Z,88.0
2022-11-05T00:45:01.723Z,89.7
2022-11-05T00:50:01.615Z,86.9
2022-11-05T01:00:01.808Z,90.7
2022-11-05T01:05:01.758Z,96.1
2022-11-05T01:10:01.823Z,98.8
2022-11-05T01:15:01.661Z,101.9
2022-11-05T01:25:02.001Z,96.9
2022-11-05T01:35:01.633Z,83.6
2022-11-05T01:40:01.559Z,78.0
2022-11-05T01:45:01.743Z,72.3
2022-11-05T01:50:01.491Z,76.0
2022-11-05T01:55:01.660Z,78.8
2022-11-05T02:00:01.867Z,83.0
2022-11-05T02:05:06.639Z,87.6
2022-11-05T02:15:01.880Z,90.2
2022-11-05T02:20:01.445Z,91.7
2022-11-05T02:25:02.012Z,93.5
2022-11-05T02:30:01.865Z,93.0
2022-11-05T02:45:01.248Z,75.0
2022-11-05T02:50:01.138Z,79.4
2022-11-05T02:55:02.506Z,94.3
2022-11-05T03:00:01.153Z,89.2
2022-11-05T03:05:02.358Z,87.8
2022-11-05T03:10:01.331Z,88.2
2022-11-05T03:25:02.253Z,93.8
2022-11-05T03:30:06.873Z,84.3
2022-11-05T03:35:02.033Z,83.5
2022-11-05T03:55:05.642Z,94.2
2022-11-05T04:00:03.371Z,95.8
2022-11-05T04:05:02.907Z,91.0
2022-11-05T04:10:02.598Z,88.3
2022-11-05T04:15:02.121Z,87.8
2022-11-05T04:20:06.999Z,86.3
2022-11-05T04:25:03.248Z,84.9
2022-11-05T04:30:03.369Z,88.8
2022-11-05T04:35:02.101Z,92.1
2022-11-05T04:40:02.965Z,97.8
2022-11-05T04:45:03.337Z,102.6
2022-11-05T04:50:02.590Z,108.6
2022-11-05T04:55:02.385Z,107.7
2022-11-05T05:00:02.235Z,106.7
2022-11-05T05:05:02.377Z,99.0
2022-11-05T05:10:02.242Z,96.5
2022-11-05T05:15:02.192Z,92.1
2022-11-05T05:20:02.222Z,94.4
2022-11-05T05:25:02.464Z,97.3
2022-11-05T05:30:07.339Z,104.2
2022-11-05T05:35:02.385Z,118.2
2022-11-05T05:40:01.968Z,122.9
2022-11-05T05:45:02.015Z,127.9
2022-11-05T05:50:02.025Z,125.0
2022-11-05T05:55:02.418Z,122.9
2022-11-05T06:00:02.641Z,112.4
2022-11-05T06:05:02.461Z,110.3
2022-11-05T06:10:02.371Z,111.9
2022-11-05T06:15:01.992Z,121.8
2022-11-05T06:20:02.061Z,128.6
2022-11-05T06:25:07.314Z,130.0
2022-11-05T06:30:02.036Z,133.2
2022-11-05T06:35:05.774Z,133.0
2022-11-05T06:45:02.202Z,129.7
2022-11-05T06:50:01.918Z,126.4
2022-11-05T06:55:05.425Z,129.5
2022-11-05T07:00:09.509Z,132.1
2022-11-05T07:05:02.286Z,130.9
2022-11-05T07:10:01.966Z,134.8
2022-11-05T07:15:08.368Z,142.1
2022-11-05T07:20:02.653Z,150.3
2022-11-05T07:25:02.397Z,162.6
2022-11-05T07:30:02.138Z,176.9
2022-11-05T07:35:07.361Z,191.8
2022-11-05T07:40:02.134Z,207.5
2022-11-05T07:45:02.089Z,217.9
2022-11-05T07:50:01.763Z,225.3
2022-11-05T07:55:01.882Z,220.6
2022-11-05T08:00:07.268Z,217.9
2022-11-05T08:05:02.363Z,209.1
2022-11-05T08:10:02.144Z,199.7
2022-11-05T08:15:03.040Z,201.2
2022-11-05T08:20:07.134Z,204.7
2022-11-05T08:25:07.616Z,205.3
2022-11-05T08:30:02.110Z,216.4
2022-11-05T08:40:01.923Z,204.6
2022-11-05T08:45:02.340Z,199.0
2022-11-05T08:50:03.174Z,192.2
2022-11-05T08:55:02.412Z,181.3
2022-11-05T09:00:01.854Z,183.8
2022-11-05T09:05:10.413Z,184.3
2022-11-05T09:10:08.374Z,184.3
2022-11-05T09:15:01.830Z,182.3
2022-11-05T09:20:01.880Z,178.2
2022-11-05T09:25:03.247Z,160.6
2022-11-05T09:30:01.786Z,152.9
2022-11-05T09:35:02.272Z,148.6
2022-11-05T09:40:02.132Z,141.3
2022-11-05T09:45:01.987Z,143.2
2022-11-05T09:50:02.057Z,138.1
2022-11-05T09:55:05.990Z,133.1
2022-11-05T10:00:01.790Z,127.9
2022-11-05T10:05:11.717Z,125.2
2022-11-05T10:10:01.845Z,117.0
2022-11-05T10:15:03.042Z,118.3
2022-11-05T10:20:07.925Z,117.8
2022-11-05T10:25:08.377Z,116.5
2022-11-05T10:30:07.772Z,117.4
2022-11-05T10:35:04.080Z,114.6
2022-11-05T10:40:01.714Z,105.7
2022-11-05T10:45:01.768Z,100.8
2022-11-05T10:50:01.982Z,92.8
2022-11-05T10:55:02.238Z,99.5
2022-11-05T11:00:01.645Z,96.7
2022-11-05T11:15:01.671Z,96.8
2022-11-05T11:25:01.614Z,98.2
2022-11-05T11:50:02.100Z,96.3
2022-11-05T11:55:02.419Z,93.3
2022-11-05T12:15:02.833Z,91.2
2022-11-05T12:35:02.749Z,100.2
2022-11-05T12:40:01.926Z,96.2
2022-11-05T12:55:04.771Z,97.6
2022-11-05T13:15:06.559Z,84.4
2022-11-05T13:20:06.823Z,86.1
2022-11-05T13:25:01.572Z,88.9
2022-11-05T13:35:01.539Z,94.6
2022-11-05T13:40:02.425Z,94.1
2022-11-05T13:45:01.512Z,91.6
2022-11-05T14:05:02.857Z,104.8
2022-11-05T14:10:04.432Z,108.8
2022-11-05T14:25:01.647Z,114.8
2022-11-05T14:45:02.069Z,135.8
2022-11-05T15:05:03.367Z,105.0
2022-11-05T15:25:01.832Z,161.4
2022-11-05T15:30:01.457Z,161.8
2022-11-05T15:35:01.531Z,163.3
2022-11-05T15:40:01.310Z,164.8
2022-11-05T15:45:01.512Z,168.6
2022-11-05T15:50:15.964Z,172.9
2022-11-05T15:55:02.428Z,176.4
2022-11-05T16:15:02.167Z,186.2
2022-11-05T16:35:01.809Z,195.4
2022-11-05T16:40:01.538Z,191.3
2022-11-05T16:45:01.618Z,189.8
2022-11-05T16:50:06.538Z,191.7
2022-11-05T16:55:01.497Z,192.2
2022-11-05T17:00:01.236Z,193.8
2022-11-05T17:05:02.569Z,196.7
2022-11-05T17:10:01.413Z,197.1
2022-11-05T17:15:01.478Z,196.5
2022-11-05T17:20:03.110Z,195.4
2022-11-05T17:25:07.111Z,192.9
2022-11-05T17:30:01.304Z,181.8
2022-11-05T17:35:01.834Z,172.6
2022-11-05T17:40:01.290Z,161.2
2022-11-05T17:45:01.397Z,165.0
2022-11-05T17:50:01.345Z,158.1
2022-11-05T17:55:05.286Z,157.0
2022-11-05T18:00:01.280Z,155.6
2022-11-05T18:05:06.191Z,153.5
2022-11-05T18:10:01.347Z,136.0
2022-11-05T18:15:01.793Z,134.0
2022-11-05T18:20:01.574Z,135.5
2022-11-05T18:25:02.183Z,136.0
2022-11-05T18:30:02.437Z,131.6
2022-11-05T18:35:01.820Z,133.8
2022-11-05T18:40:01.822Z,127.6
2022-11-05T18:45:07.643Z,126.6
2022-11-05T18:50:06.556Z,127.6
2022-11-05T18:55:01.722Z,146.2
2022-11-05T19:00:01.255Z,145.8
2022-11-05T19:10:06.625Z,150.8
2022-11-05T19:15:03.671Z,153.3
2022-11-05T19:20:01.692Z,140.5
2022-11-05T19:25:01.730Z,140.2
2022-11-05T19:30:01.455Z,134.4
2022-11-05T19:35:02.485Z,131.5
2022-11-05T19:40:02.741Z,134.4
2022-11-05T19:50:01.522Z,134.4
2022-11-05T19:55:01.426Z,135.1
2022-11-05T20:00:01.546Z,138.4
2022-11-05T20:05:02.611Z,129.4
2022-11-05T20:10:01.932Z,134.0
2022-11-05T20:15:02.408Z,133.6
2022-11-05T20:20:02.335Z,136.5
2022-11-05T20:25:07.167Z,145.1
2022-11-05T20:30:01.429Z,148.9
2022-11-05T20:35:06.995Z,149.6
2022-11-05T20:40:01.443Z,150.6
2022-11-05T20:45:06.822Z,150.8
2022-11-05T20:50:01.385Z,148.3
2022-11-05T20:55:01.714Z,148.8
2022-11-05T21:00:02.257Z,149.3
2022-11-05T21:05:01.687Z,153.5
2022-11-05T21:10:01.292Z,154.9
2022-11-05T21:15:02.885Z,154.8
2022-11-05T21:20:01.612Z,154.9
2022-11-05T21:25:01.500Z,154.9
2022-11-05T21:30:01.292Z,153.5
2022-11-05T21:35:01.461Z,155.8
2022-11-05T21:45:06.612Z,157.2
2022-11-05T21:50:01.351Z,158.0
2022-11-05T21:55:01.461Z,158.6
2022-11-05T22:00:01.359Z,157.8
2022-11-05T22:05:06.650Z,157.3
2022-11-05T22:15:01.357Z,157.7
2022-11-05T22:20:01.526Z,166.4
2022-11-05T22:25:02.921Z,166.7
2022-11-05T22:35:01.400Z,167.1
2022-11-05T22:40:02.266Z,165.0
2022-11-05T22:45:01.893Z,156.2
2022-11-05T22:50:01.397Z,151.4
2022-11-05T22:55:01.878Z,146.3
2022-11-05T23:00:01.565Z,138.2
2022-11-05T23:05:01.494Z,143.1
2022-11-05T23:10:01.323Z,139.7
2022-11-05T23:15:01.341Z,137.8
2022-11-05T23:20:01.304Z,138.6
2022-11-05T23:25:02.780Z,141.8
2022-11-05T23:30:07.395Z,135.9
2022-11-05T23:35:01.423Z,134.6
2022-11-05T23:40:02.357Z,136.0
2022-11-05T23:45:02.412Z,136.6
2022-11-05T23:50:01.596Z,137.3
2022-11-05T23:55:02.060Z,139.6
